Time;durP1;ratioP1;P1;durP2;ratioP2;P2;SDS_P1;SDS_P2;PMS_P1;PMS_P2;Temp;Humidity;BMP_temperature;BMP_pressure;BME280_temperature;BME280_humidity;BME280_pressure;Samples;Min_cycle;Max_cycle;Signal;HPM_P1;HPM_P2
2021/08/15 00:02:10;;;;;;;12.60;11.40;;;;;;;;;;5018321;28;20224;-81
2021/08/15 00:04:36;;;;;;;11.20;10.10;;;;;;;;;;5017502;28;20198;-81
2021/08/15 00:07:02;;;;;;;11.70;10.50;;;;;;;;;;5017777;28;20258;-81
2021/08/15 00:09:28;;;;;;;12.30;10.73;;;;;;;;;;5018180;28;20558;-81
2021/08/15 00:11:54;;;;;;;12.27;11.07;;;;;;;;;;5017617;28;20189;-81
2021/08/15 00:14:20;;;;;;;10.97;9.97;;;;;;;;;;5019758;28;20192;-81
2021/08/15 00:16:46;;;;;;;12.53;10.90;;;;;;;;;;5031789;28;20200;-81
2021/08/15 00:19:12;;;;;;;12.30;11.00;;;;;;;;;;5012084;28;20494;-81
2021/08/15 00:21:38;;;;;;;11.53;10.33;;;;;;;;;;5014374;28;20532;-81
2021/08/15 00:24:05;;;;;;;13.93;11.40;;;;;;;;;;5017495;28;20247;-81
2021/08/15 00:26:32;;;;;;;12.27;11.07;;;;;;;;;;5017638;28;20178;-81
2021/08/15 00:28:58;;;;;;;11.50;10.40;;;;;;;;;;5017272;28;20184;-81
2021/08/15 00:31:26;;;;;;;11.70;10.43;;;;;;;;;;5017536;28;20200;-81
2021/08/15 00:33:52;;;;;;;11.53;10.53;;;;;;;;;;5017502;28;20186;-81
2021/08/15 00:36:18;;;;;;;12.23;10.93;;;;;;;;;;5032679;28;20239;-81
2021/08/15 00:38:44;;;;;;;12.30;10.70;;;;;;;;;;5016767;28;20189;-81
2021/08/15 00:41:10;;;;;;;11.23;9.87;;;;;;;;;;5017025;28;20291;-81
2021/08/15 00:43:36;;;;;;;12.60;10.93;;;;;;;;;;5016930;28;20197;-81
2021/08/15 00:46:13;;;;;;;11.90;10.67;;;;;;;;;;5015696;28;20216;-81
2021/08/15 00:48:39;;;;;;;11.20;10.00;;;;;;;;;;5034889;28;20174;-81
2021/08/15 00:51:05;;;;;;;11.87;10.77;;;;;;;;;;5015931;28;20231;-81
2021/08/15 00:53:41;;;;;;;11.20;10.10;;;;;;;;;;5016338;28;20202;-81
2021/08/15 00:56:08;;;;;;;11.37;10.27;;;;;;;;;;5013530;28;20332;-81
2021/08/15 00:58:34;;;;;;;11.50;10.33;;;;;;;;;;5014439;28;20185;-81
2021/08/15 01:01:01;;;;;;;12.68;11.35;;;;;;;;;;5017322;28;20784;-81
2021/08/15 01:03:27;;;;;;;11.53;10.37;;;;;;;;;;5016750;28;20188;-81
2021/08/15 01:05:54;;;;;;;12.10;10.80;;;;;;;;;;4999610;28;20843;-81
2021/08/15 01:08:20;;;;;;;11.20;10.10;;;;;;;;;;5016583;28;20170;-81
2021/08/15 01:10:46;;;;;;;11.33;10.17;;;;;;;;;;5011860;28;20195;-81
2021/08/15 01:13:12;;;;;;;11.57;10.47;;;;;;;;;;4997446;28;20519;-81
2021/08/15 01:15:39;;;;;;;11.37;10.23;;;;;;;;;;5014083;28;20186;-81
2021/08/15 01:18:25;;;;;;;12.43;11.13;;;;;;;;;;5033047;28;20215;-81
2021/08/15 01:20:58;;;;;;;12.10;10.57;;;;;;;;;;5009590;28;20196;-81
2021/08/15 01:23:24;;;;;;;13.20;11.67;;;;;;;;;;5034293;28;20191;-81
2021/08/15 01:25:51;;;;;;;11.97;10.77;;;;;;;;;;5034002;28;20195;-81
2021/08/15 01:28:19;;;;;;;12.00;10.83;;;;;;;;;;5036049;28;20624;-81
2021/08/15 01:30:46;;;;;;;12.37;11.07;;;;;;;;;;5001196;28;20543;-81
2021/08/15 01:33:12;;;;;;;11.77;10.57;;;;;;;;;;5014565;28;20535;-81
2021/08/15 01:35:38;;;;;;;11.30;10.03;;;;;;;;;;5015610;28;20186;-81
2021/08/15 01:38:04;;;;;;;12.13;10.93;;;;;;;;;;5033055;28;20178;-81
2021/08/15 01:40:30;;;;;;;12.50;10.90;;;;;;;;;;5015785;28;20212;-81
2021/08/15 01:42:56;;;;;;;12.37;10.40;;;;;;;;;;5016099;28;20178;-81
2021/08/15 01:45:22;;;;;;;12.40;10.50;;;;;;;;;;5016727;28;20639;-80
2021/08/15 01:47:51;;;;;;;13.03;10.77;;;;;;;;;;5014981;28;20272;-80
2021/08/15 01:50:17;;;;;;;12.20;10.30;;;;;;;;;;5013581;28;20193;-80
2021/08/15 01:52:43;;;;;;;11.47;9.77;;;;;;;;;;5015932;28;20269;-81
2021/08/15 01:55:10;;;;;;;13.40;11.00;;;;;;;;;;5015777;28;20232;-81
2021/08/15 01:57:39;;;;;;;12.37;10.73;;;;;;;;;;5016477;28;20236;-81
2021/08/15 02:00:05;;;;;;;12.27;11.10;;;;;;;;;;5024650;28;20190;-80
2021/08/15 02:02:31;;;;;;;11.83;10.63;;;;;;;;;;5018862;28;20277;-81
2021/08/15 02:04:57;;;;;;;11.67;10.47;;;;;;;;;;5014752;28;20292;-81
2021/08/15 02:07:25;;;;;;;12.13;10.40;;;;;;;;;;5031764;28;20207;-81
2021/08/15 02:09:51;;;;;;;12.73;11.43;;;;;;;;;;5032726;28;20185;-80
2021/08/15 02:12:17;;;;;;;12.20;10.90;;;;;;;;;;5014290;28;20178;-80
2021/08/15 02:14:43;;;;;;;10.60;9.50;;;;;;;;;;5016182;28;20178;-80
2021/08/15 02:17:09;;;;;;;11.73;10.53;;;;;;;;;;5032901;28;20196;-81
2021/08/15 02:19:35;;;;;;;14.03;11.27;;;;;;;;;;5014708;28;20193;-81
2021/08/15 02:22:01;;;;;;;12.27;11.03;;;;;;;;;;5014922;28;20208;-81
2021/08/15 02:24:27;;;;;;;11.07;10.00;;;;;;;;;;5032815;28;20251;-80
2021/08/15 02:26:53;;;;;;;14.53;11.43;;;;;;;;;;5015106;28;20268;-81
2021/08/15 02:29:19;;;;;;;12.17;10.97;;;;;;;;;;5018877;28;20289;-81
2021/08/15 02:31:46;;;;;;;13.57;10.80;;;;;;;;;;5015458;28;20313;-80
2021/08/15 02:34:13;;;;;;;12.20;10.90;;;;;;;;;;5032612;28;20243;-80
2021/08/15 02:36:39;;;;;;;14.27;10.43;;;;;;;;;;5014693;28;20208;-80
2021/08/15 02:39:05;;;;;;;11.83;10.57;;;;;;;;;;5015248;28;20181;-80
2021/08/15 02:41:31;;;;;;;13.70;11.70;;;;;;;;;;5014425;28;20220;-80
2021/08/15 02:43:57;;;;;;;12.80;11.30;;;;;;;;;;5015520;28;20209;-80
2021/08/15 02:46:23;;;;;;;11.97;10.70;;;;;;;;;;5030199;28;20178;-80
2021/08/15 02:48:49;;;;;;;12.70;10.73;;;;;;;;;;5032162;28;20201;-80
2021/08/15 02:51:19;;;;;;;11.83;10.63;;;;;;;;;;5030682;28;20181;-80
2021/08/15 02:53:45;;;;;;;12.70;11.50;;;;;;;;;;5014830;28;20183;-80
2021/08/15 02:56:11;;;;;;;14.30;11.73;;;;;;;;;;5030324;28;20227;-80
2021/08/15 02:58:37;;;;;;;12.33;10.77;;;;;;;;;;5032865;28;20181;-80
2021/08/15 03:01:04;;;;;;;11.80;10.60;;;;;;;;;;5031161;28;20250;-80
2021/08/15 03:03:30;;;;;;;12.27;10.73;;;;;;;;;;5008847;28;20212;-80
2021/08/15 03:05:56;;;;;;;11.97;10.77;;;;;;;;;;5010823;28;20249;-80
2021/08/15 03:08:22;;;;;;;11.23;10.10;;;;;;;;;;5015741;28;20182;-80
2021/08/15 03:10:48;;;;;;;10.97;9.77;;;;;;;;;;5016054;28;20186;-80
2021/08/15 03:13:15;;;;;;;13.47;10.90;;;;;;;;;;5033666;28;20185;-80
2021/08/15 03:15:41;;;;;;;12.87;11.17;;;;;;;;;;5033807;28;20456;-81
2021/08/15 03:18:07;;;;;;;12.90;11.60;;;;;;;;;;5033546;28;20433;-81
2021/08/15 03:20:33;;;;;;;14.30;10.83;;;;;;;;;;5015794;28;20203;-81
2021/08/15 03:22:59;;;;;;;11.73;10.53;;;;;;;;;;5015147;28;20185;-80
2021/08/15 03:25:25;;;;;;;12.30;11.10;;;;;;;;;;5014272;28;20213;-81
2021/08/15 03:27:54;;;;;;;10.77;9.67;;;;;;;;;;5031193;28;20643;-80
2021/08/15 03:30:20;;;;;;;12.33;10.37;;;;;;;;;;5026050;28;20182;-81
2021/08/15 03:32:46;;;;;;;12.77;10.07;;;;;;;;;;5031053;28;20167;-81
2021/08/15 03:35:13;;;;;;;12.60;10.00;;;;;;;;;;5020033;28;20225;-81
2021/08/15 03:37:39;;;;;;;11.60;10.50;;;;;;;;;;5030673;28;20218;-81
2021/08/15 03:40:06;;;;;;;12.33;9.83;;;;;;;;;;5014706;28;20197;-81
2021/08/15 03:42:32;;;;;;;12.27;10.77;;;;;;;;;;5030412;28;20186;-81
2021/08/15 03:44:58;;;;;;;13.97;12.03;;;;;;;;;;5014539;28;20210;-81
2021/08/15 03:47:26;;;;;;;13.33;11.20;;;;;;;;;;5014001;28;20657;-81
2021/08/15 03:49:52;;;;;;;10.80;9.20;;;;;;;;;;5013979;28;20188;-81
2021/08/15 03:52:18;;;;;;;11.10;9.80;;;;;;;;;;5031078;28;20221;-81
2021/08/15 03:54:44;;;;;;;9.90;8.90;;;;;;;;;;5030717;28;20663;-81
2021/08/15 03:57:10;;;;;;;10.37;9.00;;;;;;;;;;5014009;28;20265;-81
2021/08/15 03:59:36;;;;;;;12.00;9.97;;;;;;;;;;5020014;28;20615;-81
2021/08/15 04:02:02;;;;;;;12.33;9.53;;;;;;;;;;5047157;28;20636;-81
2021/08/15 04:04:29;;;;;;;9.77;8.77;;;;;;;;;;5013475;28;20213;-81
2021/08/15 04:06:55;;;;;;;14.00;10.03;;;;;;;;;;5013618;28;20199;-81
2021/08/15 04:09:21;;;;;;;10.93;9.60;;;;;;;;;;5031773;28;20179;-81
2021/08/15 04:11:47;;;;;;;11.40;9.33;;;;;;;;;;5030196;28;20183;-81
2021/08/15 04:14:13;;;;;;;12.90;10.20;;;;;;;;;;5031395;28;20186;-81
2021/08/15 04:16:39;;;;;;;12.87;9.10;;;;;;;;;;5014355;28;20190;-81
2021/08/15 04:19:05;;;;;;;10.77;9.63;;;;;;;;;;4996358;28;20183;-81
2021/08/15 04:21:31;;;;;;;10.53;9.23;;;;;;;;;;5013110;28;20183;-81
2021/08/15 04:23:59;;;;;;;10.20;9.17;;;;;;;;;;5036289;28;20190;-81
2021/08/15 04:26:26;;;;;;;11.53;9.77;;;;;;;;;;5018692;28;20210;-81
2021/08/15 04:28:52;;;;;;;10.37;8.73;;;;;;;;;;5017525;28;20182;-81
2021/08/15 04:31:18;;;;;;;9.60;8.70;;;;;;;;;;5034209;28;20185;-81
2021/08/15 04:33:45;;;;;;;11.10;8.90;;;;;;;;;;5016844;28;20189;-81
2021/08/15 04:36:11;;;;;;;10.57;7.70;;;;;;;;;;5034920;28;20181;-80
2021/08/15 04:38:38;;;;;;;9.90;8.63;;;;;;;;;;5035072;28;20182;-80
2021/08/15 04:41:04;;;;;;;9.97;8.37;;;;;;;;;;5033897;28;20193;-81
2021/08/15 04:43:31;;;;;;;10.27;9.03;;;;;;;;;;5035140;28;20162;-81
2021/08/15 04:45:57;;;;;;;10.80;9.40;;;;;;;;;;5034345;28;20198;-80
2021/08/15 04:48:23;;;;;;;9.30;8.40;;;;;;;;;;5017280;28;20182;-81
2021/08/15 04:50:49;;;;;;;11.67;8.73;;;;;;;;;;5016926;28;20198;-80
2021/08/15 04:53:15;;;;;;;9.80;8.90;;;;;;;;;;5034802;28;20515;-80
2021/08/15 04:55:41;;;;;;;9.83;8.63;;;;;;;;;;5016993;28;20234;-80
2021/08/15 04:58:08;;;;;;;12.27;9.10;;;;;;;;;;5016918;28;20237;-81
2021/08/15 05:00:37;;;;;;;10.00;8.37;;;;;;;;;;5000470;28;20186;-81
2021/08/15 05:03:05;;;;;;;11.40;8.90;;;;;;;;;;5028607;28;20269;-80
2021/08/15 05:05:31;;;;;;;9.27;8.33;;;;;;;;;;5031626;28;20210;-80
2021/08/15 05:07:57;;;;;;;9.70;8.67;;;;;;;;;;5017265;28;20194;-81
2021/08/15 05:10:23;;;;;;;11.53;8.83;;;;;;;;;;5034759;28;20200;-80
2021/08/15 05:12:49;;;;;;;9.10;8.20;;;;;;;;;;5050053;28;20185;-80
2021/08/15 05:15:15;;;;;;;8.60;7.70;;;;;;;;;;5034385;28;20273;-80
2021/08/15 05:17:41;;;;;;;9.80;7.90;;;;;;;;;;5032711;28;20185;-80
2021/08/15 05:20:08;;;;;;;10.53;8.20;;;;;;;;;;5015957;28;20190;-80
2021/08/15 05:22:34;;;;;;;8.90;7.50;;;;;;;;;;5016540;28;20248;-80
2021/08/15 05:25:00;;;;;;;10.03;8.50;;;;;;;;;;5017761;28;20201;-80
2021/08/15 05:27:26;;;;;;;10.10;8.43;;;;;;;;;;5033765;28;20182;-80
2021/08/15 05:29:53;;;;;;;9.17;7.33;;;;;;;;;;5034954;28;20194;-80
2021/08/15 05:32:19;;;;;;;8.60;7.03;;;;;;;;;;5034151;28;20216;-80
2021/08/15 05:34:45;;;;;;;8.73;7.83;;;;;;;;;;5033994;28;20603;-80
2021/08/15 05:37:11;;;;;;;9.80;7.97;;;;;;;;;;5049828;28;20799;-80
2021/08/15 05:39:37;;;;;;;9.80;7.90;;;;;;;;;;5042122;28;20181;-80
2021/08/15 05:42:04;;;;;;;9.13;7.90;;;;;;;;;;5034687;28;20637;-80
2021/08/15 05:44:31;;;;;;;9.60;7.20;;;;;;;;;;5048673;28;20342;-81
2021/08/15 05:46:57;;;;;;;9.37;7.47;;;;;;;;;;5046417;28;20182;-80
2021/08/15 05:49:24;;;;;;;8.40;7.30;;;;;;;;;;5015321;28;20537;-80
2021/08/15 05:51:50;;;;;;;11.97;8.27;;;;;;;;;;5033640;28;20189;-80
2021/08/15 05:54:16;;;;;;;9.10;6.83;;;;;;;;;;5015757;28;20230;-81
2021/08/15 05:56:42;;;;;;;9.20;7.43;;;;;;;;;;5016206;28;20285;-80
2021/08/15 05:59:09;;;;;;;9.53;6.83;;;;;;;;;;5033431;28;20220;-80
2021/08/15 06:01:35;;;;;;;11.03;8.00;;;;;;;;;;5033238;28;20178;-80
2021/08/15 06:04:02;;;;;;;8.50;7.60;;;;;;;;;;5015428;28;20206;-80
2021/08/15 06:06:28;;;;;;;8.63;6.90;;;;;;;;;;5015171;28;20200;-81
2021/08/15 06:08:54;;;;;;;9.20;7.07;;;;;;;;;;5033340;28;20632;-81
2021/08/15 06:11:21;;;;;;;8.37;7.43;;;;;;;;;;5029097;28;20196;-81
2021/08/15 06:13:47;;;;;;;11.23;6.73;;;;;;;;;;5015081;28;20178;-81
2021/08/15 06:16:13;;;;;;;8.13;6.90;;;;;;;;;;5032334;28;20197;-81
2021/08/15 06:18:39;;;;;;;11.07;6.87;;;;;;;;;;5014291;28;20255;-80
2021/08/15 06:21:05;;;;;;;8.07;6.87;;;;;;;;;;5031424;28;20178;-79
2021/08/15 06:23:31;;;;;;;12.30;7.10;;;;;;;;;;5022217;28;20189;-79
2021/08/15 06:25:57;;;;;;;8.23;6.77;;;;;;;;;;5032229;28;20727;-79
2021/08/15 06:28:23;;;;;;;10.30;6.80;;;;;;;;;;5032255;28;20197;-80
2021/08/15 06:30:50;;;;;;;7.87;6.00;;;;;;;;;;5016210;28;20182;-80
2021/08/15 06:33:16;;;;;;;9.50;6.83;;;;;;;;;;5019040;28;20189;-80
2021/08/15 06:35:42;;;;;;;7.43;6.27;;;;;;;;;;5015489;28;20186;-81
2021/08/15 06:38:08;;;;;;;7.60;5.83;;;;;;;;;;5033515;28;20174;-82
2021/08/15 06:40:34;;;;;;;8.37;6.23;;;;;;;;;;5015183;28;20339;-81
2021/08/15 06:43:12;;;;;;;8.47;6.07;;;;;;;;;;5017078;28;20634;-80
2021/08/15 06:45:39;;;;;;;12.17;6.43;;;;;;;;;;5027772;28;20193;-79
2021/08/15 06:48:06;;;;;;;9.57;5.90;;;;;;;;;;5015749;28;20185;-80
2021/08/15 06:50:35;;;;;;;9.60;5.77;;;;;;;;;;5018509;28;20264;-83
2021/08/15 06:53:03;;;;;;;7.77;6.13;;;;;;;;;;5000383;28;20550;-81
2021/08/15 06:55:29;;;;;;;7.13;5.80;;;;;;;;;;5016036;28;20252;-81
2021/08/15 06:57:56;;;;;;;7.73;5.77;;;;;;;;;;5017559;28;20208;-81
2021/08/15 07:00:25;;;;;;;8.53;6.10;;;;;;;;;;5003165;28;20190;-81
2021/08/15 07:02:51;;;;;;;7.87;5.80;;;;;;;;;;5002172;28;20637;-81
2021/08/15 07:05:19;;;;;;;10.43;5.57;;;;;;;;;;5015517;28;20264;-81
2021/08/15 07:07:45;;;;;;;7.03;5.30;;;;;;;;;;5016317;28;20199;-81
2021/08/15 07:10:12;;;;;;;7.53;5.30;;;;;;;;;;5016528;28;20213;-81
2021/08/15 07:12:38;;;;;;;7.17;5.63;;;;;;;;;;5013292;28;20178;-80
2021/08/15 07:15:06;;;;;;;8.00;6.33;;;;;;;;;;5034168;28;20249;-82
2021/08/15 07:17:36;;;;;;;6.47;5.70;;;;;;;;;;5006300;28;20416;-81
2021/08/15 07:20:04;;;;;;;10.97;5.67;;;;;;;;;;5032045;28;20233;-81
2021/08/15 07:22:30;;;;;;;7.00;5.43;;;;;;;;;;5033101;28;20176;-81
2021/08/15 07:24:56;;;;;;;8.07;5.27;;;;;;;;;;5015824;28;20202;-81
2021/08/15 07:27:23;;;;;;;8.33;5.40;;;;;;;;;;5033735;28;20480;-81
2021/08/15 07:29:50;;;;;;;5.77;4.77;;;;;;;;;;5015803;28;20652;-81
2021/08/15 07:32:16;;;;;;;6.97;5.10;;;;;;;;;;5032654;28;20179;-81
2021/08/15 07:34:42;;;;;;;7.87;5.33;;;;;;;;;;5015546;28;20332;-81
2021/08/15 07:37:08;;;;;;;7.93;5.70;;;;;;;;;;5016692;28;20623;-81
2021/08/15 07:39:35;;;;;;;7.30;5.50;;;;;;;;;;5034752;28;20255;-82
2021/08/15 07:42:01;;;;;;;7.23;6.17;;;;;;;;;;5025714;28;20183;-82
2021/08/15 07:44:27;;;;;;;8.30;6.20;;;;;;;;;;5014834;28;20238;-79
2021/08/15 07:46:55;;;;;;;6.63;5.40;;;;;;;;;;5018434;28;20183;-80
2021/08/15 07:49:21;;;;;;;7.77;5.10;;;;;;;;;;5023748;28;20280;-80
2021/08/15 07:51:47;;;;;;;7.70;5.87;;;;;;;;;;5033112;28;20193;-80
2021/08/15 07:54:14;;;;;;;8.37;5.80;;;;;;;;;;5019999;28;20313;-80
2021/08/15 07:56:40;;;;;;;8.87;6.10;;;;;;;;;;5040174;28;20637;-80
2021/08/15 07:59:06;;;;;;;8.40;5.57;;;;;;;;;;5019343;28;20182;-81
2021/08/15 08:01:32;;;;;;;6.90;5.30;;;;;;;;;;5038161;28;20185;-80
2021/08/15 08:03:58;;;;;;;9.00;5.93;;;;;;;;;;5022032;28;20225;-79
2021/08/15 08:06:25;;;;;;;10.57;5.93;;;;;;;;;;5041016;28;20262;-80
2021/08/15 08:08:52;;;;;;;9.17;5.90;;;;;;;;;;5026459;28;20213;-80
2021/08/15 08:11:18;;;;;;;11.37;5.73;;;;;;;;;;5041523;28;20180;-80
2021/08/15 08:13:47;;;;;;;8.37;6.00;;;;;;;;;;5038374;28;20637;-80
2021/08/15 08:16:13;;;;;;;10.60;6.73;;;;;;;;;;5037595;28;20185;-80
2021/08/15 08:18:39;;;;;;;7.93;5.43;;;;;;;;;;5019707;28;20211;-80
2021/08/15 08:21:06;;;;;;;9.47;5.83;;;;;;;;;;5036767;28;20182;-80
2021/08/15 08:23:34;;;;;;;10.27;6.30;;;;;;;;;;5021145;28;20205;-78
2021/08/15 08:26:00;;;;;;;8.37;5.47;;;;;;;;;;5045489;28;20256;-80
2021/08/15 08:28:28;;;;;;;8.50;5.80;;;;;;;;;;5019625;28;20305;-80
2021/08/15 08:30:54;;;;;;;8.93;5.23;;;;;;;;;;5019738;28;20741;-80
2021/08/15 08:33:20;;;;;;;10.53;6.30;;;;;;;;;;5019414;28;20205;-80
2021/08/15 08:35:53;;;;;;;12.43;6.10;;;;;;;;;;5026691;28;20193;-80
2021/08/15 08:38:19;;;;;;;10.03;5.97;;;;;;;;;;5018296;28;20216;-80
2021/08/15 08:40:47;;;;;;;7.77;5.37;;;;;;;;;;5037345;28;20537;-80
2021/08/15 08:43:13;;;;;;;9.90;5.67;;;;;;;;;;5026682;28;20193;-80
2021/08/15 08:45:41;;;;;;;8.23;5.47;;;;;;;;;;5018452;28;20212;-80
2021/08/15 08:48:08;;;;;;;8.80;4.70;;;;;;;;;;5019797;28;20606;-79
2021/08/15 08:50:37;;;;;;;11.30;5.40;;;;;;;;;;5017233;28;20174;-79
2021/08/15 08:53:03;;;;;;;7.17;5.40;;;;;;;;;;5001076;28;20193;-78
2021/08/15 08:55:29;;;;;;;11.93;5.97;;;;;;;;;;5014858;28;20664;-80
2021/08/15 08:57:55;;;;;;;9.13;5.53;;;;;;;;;;5033954;28;20536;-78
2021/08/15 09:00:22;;;;;;;10.17;5.80;;;;;;;;;;5014798;28;20341;-78
2021/08/15 09:02:49;;;;;;;13.50;5.83;;;;;;;;;;5016285;28;20643;-80
2021/08/15 09:05:28;;;;;;;9.30;5.43;;;;;;;;;;5025747;28;20202;-80
2021/08/15 09:07:54;;;;;;;7.90;5.40;;;;;;;;;;5034193;28;20185;-81
2021/08/15 09:10:29;;;;;;;8.53;5.03;;;;;;;;;;5022397;28;20205;-80
2021/08/15 09:13:01;;;;;;;8.13;5.40;;;;;;;;;;5016825;28;20647;-81
2021/08/15 09:15:27;;;;;;;11.27;6.00;;;;;;;;;;5015608;28;20298;-81
2021/08/15 09:17:54;;;;;;;8.03;5.17;;;;;;;;;;5017514;28;20186;-81
2021/08/15 09:20:24;;;;;;;10.63;5.40;;;;;;;;;;5009248;28;20179;-80
2021/08/15 09:22:51;;;;;;;10.00;5.17;;;;;;;;;;5016305;28;20193;-80
2021/08/15 09:25:19;;;;;;;7.20;4.83;;;;;;;;;;5016920;28;20204;-81
2021/08/15 09:27:50;;;;;;;5.70;4.30;;;;;;;;;;5016098;28;20274;-81
2021/08/15 09:30:18;;;;;;;7.37;4.80;;;;;;;;;;5016472;28;20219;-81
2021/08/15 09:32:45;;;;;;;6.97;4.20;;;;;;;;;;5016465;28;20235;-81
2021/08/15 09:35:16;;;;;;;9.30;5.20;;;;;;;;;;5016781;28;20179;-81
2021/08/15 09:37:42;;;;;;;7.53;5.33;;;;;;;;;;5016152;28;20637;-81
2021/08/15 09:40:22;;;;;;;9.97;5.20;;;;;;;;;;5011947;28;20182;-81
2021/08/15 09:42:48;;;;;;;10.00;5.00;;;;;;;;;;5016716;28;20184;-81
2021/08/15 09:45:15;;;;;;;7.87;4.57;;;;;;;;;;5020725;28;20870;-81
2021/08/15 09:47:42;;;;;;;7.23;4.80;;;;;;;;;;5010255;28;20275;-82
2021/08/15 09:50:19;;;;;;;6.33;5.00;;;;;;;;;;5017917;28;20210;-82
2021/08/15 09:52:45;;;;;;;5.77;4.63;;;;;;;;;;5016992;28;20248;-82
2021/08/15 09:55:12;;;;;;;7.67;4.27;;;;;;;;;;5018520;28;20249;-81
2021/08/15 09:57:39;;;;;;;6.03;4.40;;;;;;;;;;5034796;28;20186;-81
2021/08/15 10:00:28;;;;;;;7.40;4.57;;;;;;;;;;5037022;28;20196;-82
2021/08/15 10:02:54;;;;;;;10.80;5.17;;;;;;;;;;5035003;28;20281;-82
2021/08/15 10:05:21;;;;;;;5.53;4.40;;;;;;;;;;5020884;28;20263;-82
2021/08/15 10:07:47;;;;;;;6.13;4.47;;;;;;;;;;5019840;28;20317;-81
2021/08/15 10:10:14;;;;;;;5.90;3.97;;;;;;;;;;5025858;28;20182;-82
2021/08/15 10:12:41;;;;;;;9.37;4.40;;;;;;;;;;5037645;28;20181;-81
2021/08/15 10:15:11;;;;;;;5.87;3.83;;;;;;;;;;5014633;28;20191;-88
2021/08/15 10:17:38;;;;;;;5.13;3.80;;;;;;;;;;5018407;28;20269;-88
2021/08/15 10:20:06;;;;;;;8.27;4.20;;;;;;;;;;5040281;28;20190;-87
2021/08/15 10:22:34;;;;;;;5.57;3.50;;;;;;;;;;5008890;28;20563;-87
2021/08/15 10:25:05;;;;;;;10.33;4.40;;;;;;;;;;5041369;28;20198;-87
2021/08/15 10:27:45;;;;;;;7.83;4.00;;;;;;;;;;5039601;28;20216;-86
2021/08/15 10:30:15;;;;;;;8.90;3.87;;;;;;;;;;5036725;28;20189;-79
2021/08/15 10:32:57;;;;;;;7.17;3.87;;;;;;;;;;5035971;28;20170;-80
2021/08/15 10:35:23;;;;;;;4.73;3.83;;;;;;;;;;5016353;28;20497;-80
2021/08/15 10:37:50;;;;;;;5.40;3.60;;;;;;;;;;5020141;28;20182;-79
2021/08/15 10:40:35;;;;;;;5.20;3.30;;;;;;;;;;5022264;28;20182;-79
2021/08/15 10:43:09;;;;;;;5.83;3.80;;;;;;;;;;5016880;28;20187;-79
2021/08/15 10:45:35;;;;;;;4.57;3.63;;;;;;;;;;4999628;28;20210;-79
2021/08/15 10:48:14;;;;;;;4.97;3.83;;;;;;;;;;5021324;28;20176;-80
2021/08/15 10:50:49;;;;;;;6.60;3.73;;;;;;;;;;5017183;28;20176;-78
2021/08/15 10:53:30;;;;;;;6.60;3.90;;;;;;;;;;5033965;28;20185;-79
2021/08/15 10:56:02;;;;;;;6.60;4.27;;;;;;;;;;5017905;28;20591;-80
2021/08/15 10:58:40;;;;;;;6.97;3.50;;;;;;;;;;5032727;28;20191;-80
2021/08/15 11:01:09;;;;;;;5.13;3.90;;;;;;;;;;5013776;28;20187;-79
2021/08/15 11:03:36;;;;;;;5.50;3.17;;;;;;;;;;4999586;28;20274;-80
2021/08/15 11:06:03;;;;;;;5.33;3.60;;;;;;;;;;5035890;28;20209;-79
2021/08/15 11:08:32;;;;;;;5.93;4.37;;;;;;;;;;5034245;28;20261;-80
2021/08/15 11:11:09;;;;;;;5.13;4.10;;;;;;;;;;5015565;28;20190;-80
2021/08/15 11:13:38;;;;;;;4.73;3.77;;;;;;;;;;5020149;28;20178;-82
2021/08/15 11:16:23;;;;;;;6.17;3.60;;;;;;;;;;5054306;28;20223;-79
2021/08/15 11:19:08;;;;;;;6.50;3.83;;;;;;;;;;5049598;28;20186;-79
2021/08/15 11:21:53;;;;;;;10.20;3.90;;;;;;;;;;4996875;28;20198;-79
2021/08/15 11:24:25;;;;;;;7.50;3.77;;;;;;;;;;5006627;28;20643;-78
2021/08/15 11:26:53;;;;;;;4.60;3.93;;;;;;;;;;5031310;28;20217;-80
2021/08/15 11:29:19;;;;;;;5.80;3.33;;;;;;;;;;5023767;28;20183;-81
2021/08/15 11:31:52;;;;;;;7.20;3.60;;;;;;;;;;5056155;28;20189;-80
2021/08/15 11:34:21;;;;;;;6.47;3.50;;;;;;;;;;5025571;28;20194;-79
2021/08/15 11:37:00;;;;;;;7.07;3.97;;;;;;;;;;5022236;28;20186;-79
2021/08/15 11:39:42;;;;;;;5.03;3.70;;;;;;;;;;5021633;28;20186;-80
2021/08/15 11:42:46;;;;;;;8.10;4.63;;;;;;;;;;5006605;28;20196;-80
2021/08/15 11:45:13;;;;;;;9.50;4.87;;;;;;;;;;4964433;28;20426;-80
2021/08/15 11:47:40;;;;;;;5.43;3.57;;;;;;;;;;5002516;28;20258;-80
2021/08/15 11:50:17;;;;;;;6.57;3.77;;;;;;;;;;5034033;28;20221;-80
2021/08/15 11:52:44;;;;;;;4.73;3.40;;;;;;;;;;5036450;28;20176;-80
2021/08/15 11:55:21;;;;;;;6.17;4.00;;;;;;;;;;5050164;28;20247;-80
2021/08/15 11:57:48;;;;;;;4.53;3.20;;;;;;;;;;5034824;28;20187;-81
2021/08/15 12:00:15;;;;;;;8.07;4.17;;;;;;;;;;5036671;28;20188;-81
2021/08/15 12:02:41;;;;;;;9.97;4.47;;;;;;;;;;5019567;28;20179;-82
2021/08/15 12:05:10;;;;;;;8.33;5.30;;;;;;;;;;5035896;28;20202;-83
2021/08/15 12:07:36;;;;;;;7.67;4.67;;;;;;;;;;5035535;28;20260;-82
2021/08/15 12:10:21;;;;;;;7.87;4.80;;;;;;;;;;5019455;28;20649;-81
2021/08/15 12:13:07;;;;;;;5.73;4.30;;;;;;;;;;5033873;28;20209;-81
2021/08/15 12:15:33;;;;;;;8.07;3.83;;;;;;;;;;5036382;28;20178;-81
2021/08/15 12:17:59;;;;;;;7.20;4.30;;;;;;;;;;5018484;28;20638;-82
2021/08/15 12:20:25;;;;;;;5.27;3.87;;;;;;;;;;5016290;28;20578;-81
2021/08/15 12:22:51;;;;;;;4.40;3.37;;;;;;;;;;5008965;28;20172;-81
2021/08/15 12:25:23;;;;;;;4.00;3.27;;;;;;;;;;5038962;28;20340;-81
2021/08/15 12:27:55;;;;;;;4.10;3.33;;;;;;;;;;5021234;28;20188;-82
2021/08/15 12:30:28;;;;;;;6.43;3.80;;;;;;;;;;5017813;28;20179;-81
2021/08/15 12:32:55;;;;;;;5.77;4.13;;;;;;;;;;5032476;28;20208;-81
2021/08/15 12:35:28;;;;;;;7.33;5.30;;;;;;;;;;5017691;28;20193;-82
2021/08/15 12:37:55;;;;;;;11.80;6.07;;;;;;;;;;5015651;28;20192;-81
2021/08/15 12:40:31;;;;;;;6.30;5.00;;;;;;;;;;5033233;28;20572;-81
2021/08/15 12:42:59;;;;;;;8.10;4.30;;;;;;;;;;5018226;28;20186;-81
2021/08/15 12:45:40;;;;;;;8.43;4.73;;;;;;;;;;5019138;28;20737;-81
2021/08/15 12:48:06;;;;;;;5.80;4.53;;;;;;;;;;5019472;28;20214;-81
2021/08/15 12:50:33;;;;;;;6.33;3.93;;;;;;;;;;5018573;28;20178;-80
2021/08/15 12:53:13;;;;;;;8.07;3.70;;;;;;;;;;5019547;28;20246;-80
2021/08/15 12:55:39;;;;;;;5.53;3.60;;;;;;;;;;5010763;28;20247;-84
2021/08/15 12:58:05;;;;;;;5.43;3.60;;;;;;;;;;5029056;28;20610;-83
2021/08/15 13:00:34;;;;;;;6.33;3.60;;;;;;;;;;5016595;28;20257;-83
2021/08/15 13:03:00;;;;;;;6.87;4.37;;;;;;;;;;5020175;28;20253;-83
2021/08/15 13:05:28;;;;;;;8.87;4.43;;;;;;;;;;5017206;28;20897;-83
2021/08/15 13:07:57;;;;;;;7.37;4.87;;;;;;;;;;5016746;28;20205;-83
2021/08/15 13:10:25;;;;;;;5.97;3.70;;;;;;;;;;5035418;28;20223;-84
2021/08/15 13:12:52;;;;;;;5.60;4.30;;;;;;;;;;5018737;28;20181;-85
2021/08/15 13:15:20;;;;;;;5.50;3.23;;;;;;;;;;5029172;28;20540;-84
2021/08/15 13:17:46;;;;;;;6.67;3.77;;;;;;;;;;5020359;28;20192;-85
2021/08/15 13:20:19;;;;;;;4.23;3.10;;;;;;;;;;5016059;28;20569;-85
2021/08/15 13:22:45;;;;;;;3.73;3.13;;;;;;;;;;5000567;28;20184;-84
2021/08/15 13:25:15;;;;;;;3.57;3.23;;;;;;;;;;5028802;28;20193;-86
2021/08/15 13:27:41;;;;;;;6.00;4.30;;;;;;;;;;5017233;28;20241;-87
2021/08/15 13:30:08;;;;;;;5.43;3.90;;;;;;;;;;5016638;28;20181;-85
2021/08/15 13:32:34;;;;;;;8.87;4.60;;;;;;;;;;5016230;28;20189;-86
2021/08/15 13:35:00;;;;;;;5.93;3.80;;;;;;;;;;5016444;28;20178;-85
2021/08/15 13:37:27;;;;;;;6.50;3.83;;;;;;;;;;5012432;28;20197;-85
2021/08/15 13:39:59;;;;;;;4.67;3.90;;;;;;;;;;5013480;28;20622;-84
2021/08/15 13:42:26;;;;;;;7.33;3.73;;;;;;;;;;5016177;28;20263;-85
2021/08/15 13:44:54;;;;;;;6.03;4.17;;;;;;;;;;5015585;28;20203;-85
2021/08/15 13:47:21;;;;;;;8.90;3.93;;;;;;;;;;5014555;28;20267;-85
2021/08/15 13:49:47;;;;;;;9.90;4.07;;;;;;;;;;5015239;28;20182;-79
2021/08/15 13:52:14;;;;;;;6.87;4.57;;;;;;;;;;5015563;28;20193;-85
2021/08/15 13:54:40;;;;;;;6.17;4.33;;;;;;;;;;5015768;28;20311;-85
2021/08/15 13:57:06;;;;;;;4.43;3.80;;;;;;;;;;5032159;28;20682;-85
2021/08/15 13:59:32;;;;;;;5.13;3.57;;;;;;;;;;5034069;28;20178;-85
2021/08/15 14:01:58;;;;;;;5.87;3.73;;;;;;;;;;5036505;28;20199;-86
2021/08/15 14:04:27;;;;;;;4.50;3.63;;;;;;;;;;5036852;28;20204;-85
2021/08/15 14:06:54;;;;;;;8.10;3.60;;;;;;;;;;5038664;28;20678;-87
2021/08/15 14:09:22;;;;;;;3.67;3.27;;;;;;;;;;5035221;28;20202;-88
2021/08/15 14:11:48;;;;;;;5.90;3.70;;;;;;;;;;5018300;28;20190;-88
2021/08/15 14:14:14;;;;;;;5.97;3.57;;;;;;;;;;5013648;28;20186;-88
2021/08/15 14:16:40;;;;;;;4.47;3.53;;;;;;;;;;5005685;28;20235;-89
2021/08/15 14:19:06;;;;;;;4.43;3.47;;;;;;;;;;5017158;28;20616;-88
2021/08/15 14:21:32;;;;;;;11.90;3.87;;;;;;;;;;5022775;28;20183;-88
2021/08/15 14:23:58;;;;;;;5.10;3.93;;;;;;;;;;5016882;28;20183;-88
2021/08/15 14:26:25;;;;;;;5.03;3.20;;;;;;;;;;5017908;28;21170;-88
2021/08/15 14:28:51;;;;;;;9.10;4.10;;;;;;;;;;5017792;28;20864;-89
2021/08/15 14:31:18;;;;;;;7.87;3.43;;;;;;;;;;5015229;28;20209;-88
2021/08/15 14:33:46;;;;;;;4.40;3.23;;;;;;;;;;5017221;28;20194;-89
2021/08/15 14:36:12;;;;;;;3.80;3.13;;;;;;;;;;5037022;28;20177;-88
2021/08/15 14:38:39;;;;;;;5.43;3.13;;;;;;;;;;5036140;28;20547;-89